sensor_id;sensor_type;location;lat;lon;timestamp;P1;durP1;ratioP1;P2;durP2;ratioP2
72797;SDS011;61084;55.816;37.036;2023-06-22T00:00:57;14.27;;;6.85;;
72797;SDS011;61084;55.816;37.036;2023-06-22T00:03:24;14.05;;;6.75;;
72797;SDS011;61084;55.816;37.036;2023-06-22T00:05:50;14.73;;;7.03;;
72797;SDS011;61084;55.816;37.036;2023-06-22T00:08:17;13.02;;;6.97;;
72797;SDS011;61084;55.816;37.036;2023-06-22T00:10:43;14.55;;;6.00;;
72797;SDS011;61084;55.816;37.036;2023-06-22T00:13:10;13.45;;;6.25;;
72797;SDS011;61084;55.816;37.036;2023-06-22T00:18:04;12.88;;;6.85;;
72797;SDS011;61084;55.816;37.036;2023-06-22T00:22:58;17.05;;;6.22;;
72797;SDS011;61084;55.816;37.036;2023-06-22T00:25:24;21.17;;;7.18;;
72797;SDS011;61084;55.816;37.036;2023-06-22T00:27:51;16.88;;;7.45;;
72797;SDS011;61084;55.816;37.036;2023-06-22T00:30:17;15.15;;;6.72;;
72797;SDS011;61084;55.816;37.036;2023-06-22T00:35:11;17.75;;;6.53;;
72797;SDS011;61084;55.816;37.036;2023-06-22T00:37:38;13.13;;;6.53;;
72797;SDS011;61084;55.816;37.036;2023-06-22T00:40:08;16.08;;;6.85;;
72797;SDS011;61084;55.816;37.036;2023-06-22T00:42:37;11.63;;;6.32;;
72797;SDS011;61084;55.816;37.036;2023-06-22T00:45:05;12.88;;;7.38;;
72797;SDS011;61084;55.816;37.036;2023-06-22T00:47:34;13.52;;;7.05;;
72797;SDS011;61084;55.816;37.036;2023-06-22T00:50:05;13.77;;;6.10;;
72797;SDS011;61084;55.816;37.036;2023-06-22T00:52:32;11.75;;;6.63;;
72797;SDS011;61084;55.816;37.036;2023-06-22T00:55:01;13.98;;;6.97;;
72797;SDS011;61084;55.816;37.036;2023-06-22T00:57:30;10.25;;;6.35;;
72797;SDS011;61084;55.816;37.036;2023-06-22T00:59:57;10.60;;;6.45;;
72797;SDS011;61084;55.816;37.036;2023-06-22T01:02:23;13.40;;;7.18;;
72797;SDS011;61084;55.816;37.036;2023-06-22T01:04:51;15.68;;;7.28;;
72797;SDS011;61084;55.816;37.036;2023-06-22T01:07:20;12.30;;;7.35;;
72797;SDS011;61084;55.816;37.036;2023-06-22T01:12:45;10.48;;;6.47;;
72797;SDS011;61084;55.816;37.036;2023-06-22T01:15:28;11.32;;;6.60;;
72797;SDS011;61084;55.816;37.036;2023-06-22T01:17:59;13.27;;;6.57;;
72797;SDS011;61084;55.816;37.036;2023-06-22T01:20:26;12.50;;;6.40;;
72797;SDS011;61084;55.816;37.036;2023-06-22T01:23:07;11.95;;;6.45;;
72797;SDS011;61084;55.816;37.036;2023-06-22T01:25:48;12.73;;;6.72;;
72797;SDS011;61084;55.816;37.036;2023-06-22T01:28:19;17.33;;;7.60;;
72797;SDS011;61084;55.816;37.036;2023-06-22T01:30:52;12.25;;;7.07;;
72797;SDS011;61084;55.816;37.036;2023-06-22T01:33:34;16.83;;;6.93;;
72797;SDS011;61084;55.816;37.036;2023-06-22T01:36:02;14.05;;;6.88;;
72797;SDS011;61084;55.816;37.036;2023-06-22T01:38:30;14.52;;;7.38;;
72797;SDS011;61084;55.816;37.036;2023-06-22T01:43:24;14.88;;;7.13;;
72797;SDS011;61084;55.816;37.036;2023-06-22T01:45:51;12.55;;;6.40;;
72797;SDS011;61084;55.816;37.036;2023-06-22T01:48:19;16.38;;;7.75;;
72797;SDS011;61084;55.816;37.036;2023-06-22T01:50:45;19.38;;;7.60;;
72797;SDS011;61084;55.816;37.036;2023-06-22T01:53:11;17.50;;;6.80;;
72797;SDS011;61084;55.816;37.036;2023-06-22T01:55:37;16.70;;;7.30;;
72797;SDS011;61084;55.816;37.036;2023-06-22T01:58:03;16.13;;;7.13;;
72797;SDS011;61084;55.816;37.036;2023-06-22T02:00:30;14.15;;;6.45;;
72797;SDS011;61084;55.816;37.036;2023-06-22T02:03:00;16.92;;;8.02;;
72797;SDS011;61084;55.816;37.036;2023-06-22T02:05:33;15.35;;;6.95;;
72797;SDS011;61084;55.816;37.036;2023-06-22T02:08:05;13.63;;;7.05;;
72797;SDS011;61084;55.816;37.036;2023-06-22T02:10:36;20.15;;;6.80;;
72797;SDS011;61084;55.816;37.036;2023-06-22T02:13:07;16.67;;;7.55;;
72797;SDS011;61084;55.816;37.036;2023-06-22T02:15:34;15.02;;;6.22;;
72797;SDS011;61084;55.816;37.036;2023-06-22T02:20:47;16.33;;;7.35;;
72797;SDS011;61084;55.816;37.036;2023-06-22T02:23:13;23.63;;;7.68;;
72797;SDS011;61084;55.816;37.036;2023-06-22T02:25:39;17.92;;;7.80;;
72797;SDS011;61084;55.816;37.036;2023-06-22T02:28:05;16.73;;;7.50;;
72797;SDS011;61084;55.816;37.036;2023-06-22T02:30:31;15.85;;;7.57;;
72797;SDS011;61084;55.816;37.036;2023-06-22T02:32:59;18.95;;;8.02;;
72797;SDS011;61084;55.816;37.036;2023-06-22T02:35:28;18.80;;;7.82;;
72797;SDS011;61084;55.816;37.036;2023-06-22T02:37:58;15.95;;;8.02;;
72797;SDS011;61084;55.816;37.036;2023-06-22T02:40:26;20.25;;;8.00;;
72797;SDS011;61084;55.816;37.036;2023-06-22T02:42:52;15.82;;;7.53;;
72797;SDS011;61084;55.816;37.036;2023-06-22T02:45:18;22.80;;;7.95;;
72797;SDS011;61084;55.816;37.036;2023-06-22T02:47:44;19.25;;;8.65;;
72797;SDS011;61084;55.816;37.036;2023-06-22T02:50:10;16.88;;;8.27;;
72797;SDS011;61084;55.816;37.036;2023-06-22T02:52:36;20.30;;;8.32;;
72797;SDS011;61084;55.816;37.036;2023-06-22T02:55:05;20.67;;;8.30;;
72797;SDS011;61084;55.816;37.036;2023-06-22T02:57:32;21.42;;;8.65;;
72797;SDS011;61084;55.816;37.036;2023-06-22T02:59:59;20.30;;;7.53;;
72797;SDS011;61084;55.816;37.036;2023-06-22T03:02:25;13.80;;;7.88;;
72797;SDS011;61084;55.816;37.036;2023-06-22T03:04:52;13.77;;;7.65;;
72797;SDS011;61084;55.816;37.036;2023-06-22T03:07:20;20.23;;;7.10;;
72797;SDS011;61084;55.816;37.036;2023-06-22T03:09:48;18.73;;;7.80;;
72797;SDS011;61084;55.816;37.036;2023-06-22T03:12:14;17.00;;;7.68;;
72797;SDS011;61084;55.816;37.036;2023-06-22T03:14:47;16.92;;;7.38;;
72797;SDS011;61084;55.816;37.036;2023-06-22T03:17:14;16.95;;;6.30;;
72797;SDS011;61084;55.816;37.036;2023-06-22T03:19:40;11.98;;;6.70;;
72797;SDS011;61084;55.816;37.036;2023-06-22T03:22:06;12.32;;;6.47;;
72797;SDS011;61084;55.816;37.036;2023-06-22T03:24:33;11.68;;;6.22;;
72797;SDS011;61084;55.816;37.036;2023-06-22T03:27:00;14.20;;;6.30;;
72797;SDS011;61084;55.816;37.036;2023-06-22T03:29:26;14.40;;;6.45;;
72797;SDS011;61084;55.816;37.036;2023-06-22T03:31:52;11.23;;;6.00;;
72797;SDS011;61084;55.816;37.036;2023-06-22T03:34:18;9.65;;;5.65;;
72797;SDS011;61084;55.816;37.036;2023-06-22T03:36:44;11.60;;;5.72;;
72797;SDS011;61084;55.816;37.036;2023-06-22T03:39:10;13.65;;;5.80;;
72797;SDS011;61084;55.816;37.036;2023-06-22T03:41:36;14.88;;;5.88;;
72797;SDS011;61084;55.816;37.036;2023-06-22T03:44:02;11.38;;;5.68;;
72797;SDS011;61084;55.816;37.036;2023-06-22T03:46:28;8.48;;;4.75;;
72797;SDS011;61084;55.816;37.036;2023-06-22T03:48:54;11.90;;;5.95;;
72797;SDS011;61084;55.816;37.036;2023-06-22T03:51:20;12.88;;;6.00;;
72797;SDS011;61084;55.816;37.036;2023-06-22T03:53:46;7.05;;;4.85;;
72797;SDS011;61084;55.816;37.036;2023-06-22T03:56:11;9.77;;;5.40;;
72797;SDS011;61084;55.816;37.036;2023-06-22T03:58:37;11.70;;;5.30;;
72797;SDS011;61084;55.816;37.036;2023-06-22T04:01:08;9.52;;;4.72;;
72797;SDS011;61084;55.816;37.036;2023-06-22T04:03:37;9.20;;;5.30;;
72797;SDS011;61084;55.816;37.036;2023-06-22T04:06:06;9.82;;;4.95;;
72797;SDS011;61084;55.816;37.036;2023-06-22T04:08:32;11.30;;;5.30;;
72797;SDS011;61084;55.816;37.036;2023-06-22T04:10:58;9.55;;;4.60;;
72797;SDS011;61084;55.816;37.036;2023-06-22T04:13:23;5.32;;;3.63;;
72797;SDS011;61084;55.816;37.036;2023-06-22T04:15:49;9.25;;;4.35;;
72797;SDS011;61084;55.816;37.036;2023-06-22T04:18:15;7.07;;;4.75;;
72797;SDS011;61084;55.816;37.036;2023-06-22T04:20:41;6.82;;;4.38;;
72797;SDS011;61084;55.816;37.036;2023-06-22T04:23:06;9.13;;;4.75;;
72797;SDS011;61084;55.816;37.036;2023-06-22T04:25:51;7.10;;;4.63;;
72797;SDS011;61084;55.816;37.036;2023-06-22T04:28:17;9.23;;;4.15;;
72797;SDS011;61084;55.816;37.036;2023-06-22T04:30:42;7.32;;;4.47;;
72797;SDS011;61084;55.816;37.036;2023-06-22T04:33:12;7.22;;;4.22;;
72797;SDS011;61084;55.816;37.036;2023-06-22T04:35:39;7.88;;;4.20;;
72797;SDS011;61084;55.816;37.036;2023-06-22T04:38:08;10.18;;;5.15;;
72797;SDS011;61084;55.816;37.036;2023-06-22T04:40:34;8.85;;;3.60;;
72797;SDS011;61084;55.816;37.036;2023-06-22T04:42:59;6.00;;;3.67;;
72797;SDS011;61084;55.816;37.036;2023-06-22T04:45:28;6.25;;;3.42;;
72797;SDS011;61084;55.816;37.036;2023-06-22T04:47:57;9.50;;;3.45;;
72797;SDS011;61084;55.816;37.036;2023-06-22T04:50:22;5.90;;;3.92;;
72797;SDS011;61084;55.816;37.036;2023-06-22T04:52:49;7.22;;;3.35;;
72797;SDS011;61084;55.816;37.036;2023-06-22T04:55:16;6.22;;;3.30;;
72797;SDS011;61084;55.816;37.036;2023-06-22T04:57:47;6.18;;;3.40;;
72797;SDS011;61084;55.816;37.036;2023-06-22T05:00:15;10.25;;;3.55;;
72797;SDS011;61084;55.816;37.036;2023-06-22T05:02:46;7.90;;;3.65;;
72797;SDS011;61084;55.816;37.036;2023-06-22T05:05:12;6.40;;;3.35;;
72797;SDS011;61084;55.816;37.036;2023-06-22T05:07:50;6.35;;;3.35;;
72797;SDS011;61084;55.816;37.036;2023-06-22T05:10:18;7.10;;;3.75;;
72797;SDS011;61084;55.816;37.036;2023-06-22T05:12:45;5.85;;;2.97;;
72797;SDS011;61084;55.816;37.036;2023-06-22T05:15:12;7.05;;;3.13;;
72797;SDS011;61084;55.816;37.036;2023-06-22T05:17:38;5.90;;;3.50;;
72797;SDS011;61084;55.816;37.036;2023-06-22T05:20:09;4.40;;;2.78;;
72797;SDS011;61084;55.816;37.036;2023-06-22T05:22:35;5.30;;;2.65;;
72797;SDS011;61084;55.816;37.036;2023-06-22T05:25:01;4.20;;;2.85;;
72797;SDS011;61084;55.816;37.036;2023-06-22T05:27:29;6.13;;;2.90;;
72797;SDS011;61084;55.816;37.036;2023-06-22T05:29:55;4.88;;;3.05;;
72797;SDS011;61084;55.816;37.036;2023-06-22T05:32:20;4.30;;;3.20;;
72797;SDS011;61084;55.816;37.036;2023-06-22T05:34:46;4.15;;;2.90;;
72797;SDS011;61084;55.816;37.036;2023-06-22T05:37:12;5.07;;;2.63;;
72797;SDS011;61084;55.816;37.036;2023-06-22T05:39:38;4.97;;;3.00;;
72797;SDS011;61084;55.816;37.036;2023-06-22T05:42:07;6.18;;;2.83;;
72797;SDS011;61084;55.816;37.036;2023-06-22T05:44:33;5.32;;;2.45;;
72797;SDS011;61084;55.816;37.036;2023-06-22T05:46:59;5.00;;;2.85;;
72797;SDS011;61084;55.816;37.036;2023-06-22T05:49:25;5.82;;;2.70;;
72797;SDS011;61084;55.816;37.036;2023-06-22T05:51:58;4.32;;;2.63;;
72797;SDS011;61084;55.816;37.036;2023-06-22T05:54:27;4.90;;;2.42;;
72797;SDS011;61084;55.816;37.036;2023-06-22T05:56:53;6.18;;;2.85;;
72797;SDS011;61084;55.816;37.036;2023-06-22T05:59:19;3.95;;;2.60;;
72797;SDS011;61084;55.816;37.036;2023-06-22T06:01:45;4.15;;;2.20;;
72797;SDS011;61084;55.816;37.036;2023-06-22T06:04:18;5.30;;;2.38;;
72797;SDS011;61084;55.816;37.036;2023-06-22T06:06:45;3.65;;;2.53;;
72797;SDS011;61084;55.816;37.036;2023-06-22T06:11:58;4.22;;;2.42;;
72797;SDS011;61084;55.816;37.036;2023-06-22T06:15:01;3.58;;;2.65;;
72797;SDS011;61084;55.816;37.036;2023-06-22T06:17:30;5.80;;;2.42;;
72797;SDS011;61084;55.816;37.036;2023-06-22T06:19:56;2.70;;;1.90;;
72797;SDS011;61084;55.816;37.036;2023-06-22T06:22:24;4.03;;;2.47;;
72797;SDS011;61084;55.816;37.036;2023-06-22T06:24:49;3.55;;;2.00;;
72797;SDS011;61084;55.816;37.036;2023-06-22T06:27:34;3.00;;;2.22;;
72797;SDS011;61084;55.816;37.036;2023-06-22T06:29:59;5.78;;;2.47;;
72797;SDS011;61084;55.816;37.036;2023-06-22T06:32:25;4.78;;;2.67;;
72797;SDS011;61084;55.816;37.036;2023-06-22T06:37:37;4.65;;;2.50;;
72797;SDS011;61084;55.816;37.036;2023-06-22T06:40:08;3.13;;;2.30;;
72797;SDS011;61084;55.816;37.036;2023-06-22T06:42:52;4.90;;;2.30;;
72797;SDS011;61084;55.816;37.036;2023-06-22T06:45:36;5.00;;;2.30;;
72797;SDS011;61084;55.816;37.036;2023-06-22T06:48:02;5.55;;;2.92;;
72797;SDS011;61084;55.816;37.036;2023-06-22T06:53:13;3.95;;;2.60;;
72797;SDS011;61084;55.816;37.036;2023-06-22T06:55:57;3.83;;;2.53;;
72797;SDS011;61084;55.816;37.036;2023-06-22T06:58:23;4.18;;;2.60;;
72797;SDS011;61084;55.816;37.036;2023-06-22T07:00:49;3.55;;;2.70;;
72797;SDS011;61084;55.816;37.036;2023-06-22T07:03:14;3.72;;;2.70;;
72797;SDS011;61084;55.816;37.036;2023-06-22T07:05:40;5.97;;;2.20;;
72797;SDS011;61084;55.816;37.036;2023-06-22T07:08:06;6.13;;;2.50;;
72797;SDS011;61084;55.816;37.036;2023-06-22T07:10:50;4.47;;;2.70;;
72797;SDS011;61084;55.816;37.036;2023-06-22T07:13:36;3.78;;;2.50;;
72797;SDS011;61084;55.816;37.036;2023-06-22T07:16:01;3.20;;;2.50;;
72797;SDS011;61084;55.816;37.036;2023-06-22T07:18:28;7.88;;;2.67;;
72797;SDS011;61084;55.816;37.036;2023-06-22T07:20:54;4.88;;;2.58;;
72797;SDS011;61084;55.816;37.036;2023-06-22T07:23:19;5.97;;;2.50;;
72797;SDS011;61084;55.816;37.036;2023-06-22T07:25:45;2.63;;;2.20;;
72797;SDS011;61084;55.816;37.036;2023-06-22T07:28:11;3.30;;;2.45;;
72797;SDS011;61084;55.816;37.036;2023-06-22T07:30:37;6.88;;;2.53;;
72797;SDS011;61084;55.816;37.036;2023-06-22T07:33:02;4.93;;;3.00;;
72797;SDS011;61084;55.816;37.036;2023-06-22T07:35:30;3.83;;;2.80;;
72797;SDS011;61084;55.816;37.036;2023-06-22T07:37:56;6.32;;;2.50;;
72797;SDS011;61084;55.816;37.036;2023-06-22T07:43:07;4.50;;;2.45;;
72797;SDS011;61084;55.816;37.036;2023-06-22T07:45:33;8.05;;;2.63;;
72797;SDS011;61084;55.816;37.036;2023-06-22T07:48:00;5.47;;;2.80;;
72797;SDS011;61084;55.816;37.036;2023-06-22T07:50:27;4.07;;;2.65;;
72797;SDS011;61084;55.816;37.036;2023-06-22T07:52:52;4.10;;;2.38;;
72797;SDS011;61084;55.816;37.036;2023-06-22T07:55:18;4.45;;;2.97;;
72797;SDS011;61084;55.816;37.036;2023-06-22T07:57:46;3.90;;;2.78;;
72797;SDS011;61084;55.816;37.036;2023-06-22T08:02:58;3.50;;;2.75;;
72797;SDS011;61084;55.816;37.036;2023-06-22T08:05:24;5.78;;;2.38;;
72797;SDS011;61084;55.816;37.036;2023-06-22T08:07:50;5.20;;;2.80;;
72797;SDS011;61084;55.816;37.036;2023-06-22T08:10:16;6.15;;;2.92;;
72797;SDS011;61084;55.816;37.036;2023-06-22T08:13:02;2.85;;;2.38;;
72797;SDS011;61084;55.816;37.036;2023-06-22T08:15:27;6.60;;;2.70;;
72797;SDS011;61084;55.816;37.036;2023-06-22T08:18:12;6.78;;;2.70;;
72797;SDS011;61084;55.816;37.036;2023-06-22T08:20:37;3.58;;;2.92;;
72797;SDS011;61084;55.816;37.036;2023-06-22T08:26:06;5.75;;;3.08;;
72797;SDS011;61084;55.816;37.036;2023-06-22T08:28:32;6.93;;;3.72;;
72797;SDS011;61084;55.816;37.036;2023-06-22T08:30:59;6.65;;;3.05;;
72797;SDS011;61084;55.816;37.036;2023-06-22T08:33:25;7.55;;;3.20;;
72797;SDS011;61084;55.816;37.036;2023-06-22T08:36:28;9.60;;;3.10;;
72797;SDS011;61084;55.816;37.036;2023-06-22T08:38:58;4.78;;;2.65;;
72797;SDS011;61084;55.816;37.036;2023-06-22T08:41:26;5.95;;;2.72;;
72797;SDS011;61084;55.816;37.036;2023-06-22T08:43:53;4.57;;;2.95;;
72797;SDS011;61084;55.816;37.036;2023-06-22T08:46:19;4.88;;;3.03;;
72797;SDS011;61084;55.816;37.036;2023-06-22T08:48:48;5.15;;;2.83;;
72797;SDS011;61084;55.816;37.036;2023-06-22T08:51:16;6.10;;;3.13;;
72797;SDS011;61084;55.816;37.036;2023-06-22T08:54:00;6.10;;;3.58;;
72797;SDS011;61084;55.816;37.036;2023-06-22T08:56:45;5.70;;;3.03;;
72797;SDS011;61084;55.816;37.036;2023-06-22T08:59:10;5.35;;;3.22;;
72797;SDS011;61084;55.816;37.036;2023-06-22T09:01:36;3.97;;;2.90;;
72797;SDS011;61084;55.816;37.036;2023-06-22T09:04:20;3.88;;;2.97;;
72797;SDS011;61084;55.816;37.036;2023-06-22T09:06:47;6.28;;;3.40;;
72797;SDS011;61084;55.816;37.036;2023-06-22T09:09:15;7.53;;;3.20;;
72797;SDS011;61084;55.816;37.036;2023-06-22T09:11:42;7.90;;;2.90;;
72797;SDS011;61084;55.816;37.036;2023-06-22T09:14:08;3.33;;;3.03;;
72797;SDS011;61084;55.816;37.036;2023-06-22T09:16:35;3.55;;;3.03;;
72797;SDS011;61084;55.816;37.036;2023-06-22T09:19:19;5.15;;;3.20;;
72797;SDS011;61084;55.816;37.036;2023-06-22T09:27:15;5.68;;;2.97;;
72797;SDS011;61084;55.816;37.036;2023-06-22T09:32:07;5.95;;;2.90;;
72797;SDS011;61084;55.816;37.036;2023-06-22T09:36:58;4.10;;;2.72;;
72797;SDS011;61084;55.816;37.036;2023-06-22T09:39:26;4.85;;;3.25;;
72797;SDS011;61084;55.816;37.036;2023-06-22T09:41:54;5.97;;;3.22;;
72797;SDS011;61084;55.816;37.036;2023-06-22T09:46:45;4.25;;;3.20;;
72797;SDS011;61084;55.816;37.036;2023-06-22T09:51:37;3.70;;;3.15;;
72797;SDS011;61084;55.816;37.036;2023-06-22T09:54:21;4.47;;;2.92;;
72797;SDS011;61084;55.816;37.036;2023-06-22T09:59:12;4.50;;;3.05;;
72797;SDS011;61084;55.816;37.036;2023-06-22T10:01:57;5.13;;;3.22;;
72797;SDS011;61084;55.816;37.036;2023-06-22T10:04:23;4.38;;;3.47;;
72797;SDS011;61084;55.816;37.036;2023-06-22T10:06:50;5.00;;;3.30;;
72797;SDS011;61084;55.816;37.036;2023-06-22T10:09:34;3.53;;;2.95;;
72797;SDS011;61084;55.816;37.036;2023-06-22T10:14:25;5.13;;;3.10;;
72797;SDS011;61084;55.816;37.036;2023-06-22T10:16:52;4.30;;;2.90;;
72797;SDS011;61084;55.816;37.036;2023-06-22T10:19:18;4.05;;;3.13;;
72797;SDS011;61084;55.816;37.036;2023-06-22T10:22:03;3.97;;;3.28;;
72797;SDS011;61084;55.816;37.036;2023-06-22T10:24:30;3.70;;;2.83;;
72797;SDS011;61084;55.816;37.036;2023-06-22T10:29:21;7.15;;;3.20;;
72797;SDS011;61084;55.816;37.036;2023-06-22T10:34:13;4.30;;;3.30;;
72797;SDS011;61084;55.816;37.036;2023-06-22T10:39:04;5.15;;;3.42;;
72797;SDS011;61084;55.816;37.036;2023-06-22T10:41:31;4.00;;;3.25;;
72797;SDS011;61084;55.816;37.036;2023-06-22T10:46:24;4.50;;;3.33;;
72797;SDS011;61084;55.816;37.036;2023-06-22T10:48:51;6.22;;;3.35;;
72797;SDS011;61084;55.816;37.036;2023-06-22T10:51:20;5.03;;;2.95;;
72797;SDS011;61084;55.816;37.036;2023-06-22T10:53:46;5.60;;;3.28;;
72797;SDS011;61084;55.816;37.036;2023-06-22T10:56:11;3.22;;;2.90;;
72797;SDS011;61084;55.816;37.036;2023-06-22T11:01:21;5.05;;;3.05;;
72797;SDS011;61084;55.816;37.036;2023-06-22T11:03:47;4.00;;;3.33;;
72797;SDS011;61084;55.816;37.036;2023-06-22T11:06:13;4.80;;;3.17;;
72797;SDS011;61084;55.816;37.036;2023-06-22T11:08:58;6.38;;;3.10;;
72797;SDS011;61084;55.816;37.036;2023-06-22T11:11:25;4.03;;;3.13;;
72797;SDS011;61084;55.816;37.036;2023-06-22T11:13:52;5.43;;;3.15;;
72797;SDS011;61084;55.816;37.036;2023-06-22T11:16:18;3.30;;;2.83;;
72797;SDS011;61084;55.816;37.036;2023-06-22T11:19:04;8.85;;;2.95;;
72797;SDS011;61084;55.816;37.036;2023-06-22T11:21:30;3.95;;;2.85;;
72797;SDS011;61084;55.816;37.036;2023-06-22T11:23:57;4.68;;;3.15;;
72797;SDS011;61084;55.816;37.036;2023-06-22T11:26:24;13.43;;;3.67;;
72797;SDS011;61084;55.816;37.036;2023-06-22T11:28:52;9.55;;;3.40;;
72797;SDS011;61084;55.816;37.036;2023-06-22T11:31:19;4.68;;;3.08;;
72797;SDS011;61084;55.816;37.036;2023-06-22T11:36:29;4.85;;;3.60;;
72797;SDS011;61084;55.816;37.036;2023-06-22T11:38:58;4.22;;;3.83;;
72797;SDS011;61084;55.816;37.036;2023-06-22T11:41:43;3.78;;;3.05;;
72797;SDS011;61084;55.816;37.036;2023-06-22T11:44:08;3.60;;;3.25;;
72797;SDS011;61084;55.816;37.036;2023-06-22T11:46:34;4.60;;;3.05;;
72797;SDS011;61084;55.816;37.036;2023-06-22T11:49:00;3.95;;;3.55;;
72797;SDS011;61084;55.816;37.036;2023-06-22T11:51:26;3.58;;;3.05;;
72797;SDS011;61084;55.816;37.036;2023-06-22T11:53:53;7.78;;;3.35;;
72797;SDS011;61084;55.816;37.036;2023-06-22T11:56:19;5.15;;;3.55;;
72797;SDS011;61084;55.816;37.036;2023-06-22T11:58:45;4.97;;;3.45;;
72797;SDS011;61084;55.816;37.036;2023-06-22T12:01:10;6.10;;;3.40;;
72797;SDS011;61084;55.816;37.036;2023-06-22T12:03:40;3.88;;;3.33;;
72797;SDS011;61084;55.816;37.036;2023-06-22T12:06:27;8.02;;;3.63;;
72797;SDS011;61084;55.816;37.036;2023-06-22T12:08:52;6.60;;;4.00;;
72797;SDS011;61084;55.816;37.036;2023-06-22T12:11:37;4.25;;;3.42;;
72797;SDS011;61084;55.816;37.036;2023-06-22T12:14:03;4.47;;;3.58;;
72797;SDS011;61084;55.816;37.036;2023-06-22T12:16:29;9.48;;;3.90;;
72797;SDS011;61084;55.816;37.036;2023-06-22T12:18:55;5.68;;;3.40;;
72797;SDS011;61084;55.816;37.036;2023-06-22T12:21:21;5.43;;;3.55;;
72797;SDS011;61084;55.816;37.036;2023-06-22T12:23:47;3.88;;;3.33;;
72797;SDS011;61084;55.816;37.036;2023-06-22T12:26:12;3.78;;;3.35;;
72797;SDS011;61084;55.816;37.036;2023-06-22T12:29:16;4.97;;;3.58;;
72797;SDS011;61084;55.816;37.036;2023-06-22T12:31:41;4.18;;;3.30;;
72797;SDS011;61084;55.816;37.036;2023-06-22T12:34:25;5.55;;;3.35;;
72797;SDS011;61084;55.816;37.036;2023-06-22T12:36:51;3.60;;;3.05;;
72797;SDS011;61084;55.816;37.036;2023-06-22T12:39:36;6.90;;;3.58;;
72797;SDS011;61084;55.816;37.036;2023-06-22T12:42:02;4.90;;;3.55;;
72797;SDS011;61084;55.816;37.036;2023-06-22T12:44:28;4.45;;;3.25;;
72797;SDS011;61084;55.816;37.036;2023-06-22T12:46:54;5.35;;;3.97;;
72797;SDS011;61084;55.816;37.036;2023-06-22T12:49:20;4.40;;;3.28;;
72797;SDS011;61084;55.816;37.036;2023-06-22T12:52:08;5.65;;;2.92;;
72797;SDS011;61084;55.816;37.036;2023-06-22T12:54:38;3.20;;;2.85;;
72797;SDS011;61084;55.816;37.036;2023-06-22T12:57:04;4.18;;;3.22;;
72797;SDS011;61084;55.816;37.036;2023-06-22T12:59:30;4.95;;;3.30;;
72797;SDS011;61084;55.816;37.036;2023-06-22T13:01:56;6.47;;;3.20;;
72797;SDS011;61084;55.816;37.036;2023-06-22T13:04:22;6.80;;;3.25;;
72797;SDS011;61084;55.816;37.036;2023-06-22T13:06:47;4.93;;;3.38;;
72797;SDS011;61084;55.816;37.036;2023-06-22T13:09:14;4.05;;;3.17;;
72797;SDS011;61084;55.816;37.036;2023-06-22T13:14:25;5.65;;;3.30;;
72797;SDS011;61084;55.816;37.036;2023-06-22T13:16:51;4.78;;;3.45;;
72797;SDS011;61084;55.816;37.036;2023-06-22T13:19:17;8.57;;;3.97;;
72797;SDS011;61084;55.816;37.036;2023-06-22T13:22:02;3.80;;;3.30;;
72797;SDS011;61084;55.816;37.036;2023-06-22T13:24:46;4.45;;;3.45;;
72797;SDS011;61084;55.816;37.036;2023-06-22T13:27:12;7.20;;;4.28;;
72797;SDS011;61084;55.816;37.036;2023-06-22T13:29:38;3.75;;;3.03;;
72797;SDS011;61084;55.816;37.036;2023-06-22T13:32:04;4.93;;;3.38;;
72797;SDS011;61084;55.816;37.036;2023-06-22T13:34:30;5.03;;;3.45;;
72797;SDS011;61084;55.816;37.036;2023-06-22T13:36:56;5.35;;;3.60;;
72797;SDS011;61084;55.816;37.036;2023-06-22T13:39:21;6.90;;;3.63;;
72797;SDS011;61084;55.816;37.036;2023-06-22T13:41:47;3.97;;;3.60;;
72797;SDS011;61084;55.816;37.036;2023-06-22T13:44:13;3.97;;;3.28;;
72797;SDS011;61084;55.816;37.036;2023-06-22T13:46:39;6.60;;;3.30;;
72797;SDS011;61084;55.816;37.036;2023-06-22T13:49:04;3.85;;;3.28;;
72797;SDS011;61084;55.816;37.036;2023-06-22T13:54:15;4.75;;;3.67;;
72797;SDS011;61084;55.816;37.036;2023-06-22T13:56:42;9.38;;;3.60;;
72797;SDS011;61084;55.816;37.036;2023-06-22T13:59:08;5.93;;;3.65;;
72797;SDS011;61084;55.816;37.036;2023-06-22T14:01:53;7.25;;;3.47;;
72797;SDS011;61084;55.816;37.036;2023-06-22T14:04:19;3.80;;;3.45;;
72797;SDS011;61084;55.816;37.036;2023-06-22T14:06:47;5.35;;;3.40;;
72797;SDS011;61084;55.816;37.036;2023-06-22T14:09:13;3.85;;;3.33;;
72797;SDS011;61084;55.816;37.036;2023-06-22T14:11:39;5.05;;;3.50;;
72797;SDS011;61084;55.816;37.036;2023-06-22T14:14:04;5.38;;;3.45;;
72797;SDS011;61084;55.816;37.036;2023-06-22T14:16:30;5.45;;;3.58;;
72797;SDS011;61084;55.816;37.036;2023-06-22T14:18:56;4.50;;;3.92;;
72797;SDS011;61084;55.816;37.036;2023-06-22T14:21:22;6.93;;;4.13;;
72797;SDS011;61084;55.816;37.036;2023-06-22T14:23:47;4.28;;;3.70;;
72797;SDS011;61084;55.816;37.036;2023-06-22T14:26:32;6.20;;;3.40;;
72797;SDS011;61084;55.816;37.036;2023-06-22T14:31:44;6.68;;;3.60;;
72797;SDS011;61084;55.816;37.036;2023-06-22T14:34:11;5.10;;;3.95;;
72797;SDS011;61084;55.816;37.036;2023-06-22T14:39:40;4.43;;;3.40;;
72797;SDS011;61084;55.816;37.036;2023-06-22T14:45:09;5.70;;;3.67;;
72797;SDS011;61084;55.816;37.036;2023-06-22T14:47:35;5.50;;;3.95;;
72797;SDS011;61084;55.816;37.036;2023-06-22T14:50:01;5.13;;;4.43;;
72797;SDS011;61084;55.816;37.036;2023-06-22T14:52:30;5.50;;;4.10;;
72797;SDS011;61084;55.816;37.036;2023-06-22T14:57:40;8.23;;;4.35;;
72797;SDS011;61084;55.816;37.036;2023-06-22T15:00:06;9.40;;;4.20;;
72797;SDS011;61084;55.816;37.036;2023-06-22T15:02:34;5.00;;;4.50;;
72797;SDS011;61084;55.816;37.036;2023-06-22T15:05:00;12.35;;;4.20;;
72797;SDS011;61084;55.816;37.036;2023-06-22T15:07:44;5.65;;;4.40;;
72797;SDS011;61084;55.816;37.036;2023-06-22T15:10:10;7.68;;;4.22;;
72797;SDS011;61084;55.816;37.036;2023-06-22T15:12:36;6.38;;;4.40;;
72797;SDS011;61084;55.816;37.036;2023-06-22T15:15:02;22.58;;;12.18;;
72797;SDS011;61084;55.816;37.036;2023-06-22T15:25:43;25.05;;;17.88;;
72797;SDS011;61084;55.816;37.036;2023-06-22T15:28:11;22.63;;;13.13;;
72797;SDS011;61084;55.816;37.036;2023-06-22T15:30:37;10.70;;;6.18;;
72797;SDS011;61084;55.816;37.036;2023-06-22T15:33:03;6.47;;;5.53;;
72797;SDS011;61084;55.816;37.036;2023-06-22T15:35:48;5.72;;;5.05;;
72797;SDS011;61084;55.816;37.036;2023-06-22T15:38:13;5.18;;;4.53;;
72797;SDS011;61084;55.816;37.036;2023-06-22T15:43:42;9.93;;;7.88;;
72797;SDS011;61084;55.816;37.036;2023-06-22T15:46:08;13.00;;;4.82;;
72797;SDS011;61084;55.816;37.036;2023-06-22T15:48:34;9.35;;;4.65;;
72797;SDS011;61084;55.816;37.036;2023-06-22T15:51:00;11.55;;;5.35;;
72797;SDS011;61084;55.816;37.036;2023-06-22T15:53:44;6.95;;;4.93;;
72797;SDS011;61084;55.816;37.036;2023-06-22T15:56:10;7.13;;;5.07;;
72797;SDS011;61084;55.816;37.036;2023-06-22T15:58:36;8.13;;;6.20;;
72797;SDS011;61084;55.816;37.036;2023-06-22T16:01:02;7.50;;;5.93;;
72797;SDS011;61084;55.816;37.036;2023-06-22T16:03:29;13.55;;;6.60;;
72797;SDS011;61084;55.816;37.036;2023-06-22T16:05:55;6.03;;;4.80;;
72797;SDS011;61084;55.816;37.036;2023-06-22T16:08:20;6.35;;;4.22;;
72797;SDS011;61084;55.816;37.036;2023-06-22T16:11:05;6.50;;;4.55;;
72797;SDS011;61084;55.816;37.036;2023-06-22T16:13:31;5.15;;;4.63;;
72797;SDS011;61084;55.816;37.036;2023-06-22T16:15:57;5.78;;;4.25;;